createdAt,value
2023-05-18T00:00:54.362Z,95455.00
2023-05-18T00:01:54.238Z,95458.00
2023-05-18T00:02:54.224Z,95455.00
2023-05-18T00:03:54.400Z,95453.00
2023-05-18T00:04:54.274Z,95453.00
2023-05-18T00:05:54.256Z,95455.00
2023-05-18T00:06:54.253Z,95455.00
2023-05-18T00:07:54.270Z,95455.00
2023-05-18T00:08:54.402Z,95453.00
2023-05-18T00:09:54.327Z,95453.00
2023-05-18T00:10:54.345Z,95453.00
2023-05-18T00:11:54.358Z,95451.00
2023-05-18T00:12:54.370Z,95451.00
2023-05-18T00:13:54.397Z,95451.00
2023-05-18T00:14:54.390Z,95451.00
2023-05-18T00:15:54.449Z,95451.00
2023-05-18T00:16:54.435Z,95453.00
2023-05-18T00:17:54.587Z,95451.00
2023-05-18T00:18:54.602Z,95451.00
2023-05-18T00:19:54.525Z,95449.00
2023-05-18T00:20:54.529Z,95449.00
2023-05-18T00:21:54.544Z,95447.00
2023-05-18T00:22:54.570Z,95447.00
2023-05-18T00:23:54.599Z,95449.00
2023-05-18T00:24:54.629Z,95445.00
2023-05-18T00:25:54.626Z,95451.00
2023-05-18T00:26:54.664Z,95449.00
2023-05-18T00:27:54.689Z,95451.00
2023-05-18T00:28:54.700Z,95449.00
2023-05-18T00:29:54.718Z,95451.00
2023-05-18T00:30:54.729Z,95451.00
2023-05-18T00:31:54.763Z,95449.00
2023-05-18T00:32:54.788Z,95449.00
2023-05-18T00:33:54.784Z,95447.00
2023-05-18T00:34:54.808Z,95449.00
2023-05-18T00:35:54.803Z,95445.00
2023-05-18T00:36:54.837Z,95447.00
2023-05-18T00:37:54.835Z,95447.00
2023-05-18T00:38:54.861Z,95443.00
2023-05-18T00:39:54.892Z,95443.00
2023-05-18T00:40:55.023Z,95443.00
2023-05-18T00:41:54.905Z,95443.00
2023-05-18T00:42:54.956Z,95441.00
2023-05-18T00:43:54.949Z,95441.00
2023-05-18T00:44:54.979Z,95439.00
2023-05-18T00:45:55.054Z,95437.00
2023-05-18T00:46:55.037Z,95439.00
2023-05-18T00:47:55.065Z,95437.00
2023-05-18T00:48:55.077Z,95437.00
2023-05-18T00:49:55.064Z,95437.00
2023-05-18T00:50:55.082Z,95435.00
2023-05-18T00:51:55.116Z,95437.00
2023-05-18T00:52:55.151Z,95435.00
2023-05-18T00:53:55.174Z,95437.00
2023-05-18T00:54:55.186Z,95437.00
2023-05-18T00:55:55.194Z,95435.00
2023-05-18T00:56:55.233Z,95435.00
2023-05-18T00:57:55.235Z,95433.00
2023-05-18T00:58:55.259Z,95433.00
2023-05-18T00:59:55.288Z,95435.00
2023-05-18T01:00:55.370Z,95435.00
2023-05-18T01:01:55.365Z,95431.00
2023-05-18T01:02:55.405Z,95431.00
2023-05-18T01:03:55.369Z,95431.00
2023-05-18T01:04:55.395Z,95431.00
2023-05-18T01:05:55.419Z,95431.00
2023-05-18T01:06:55.438Z,95429.00
2023-05-18T01:07:55.477Z,95431.00
2023-05-18T01:08:55.501Z,95429.00
2023-05-18T01:09:55.522Z,95429.00
2023-05-18T01:10:55.603Z,95431.00
2023-05-18T01:11:55.581Z,95427.00
2023-05-18T01:12:55.584Z,95427.00
2023-05-18T01:13:55.647Z,95427.00
2023-05-18T01:14:55.672Z,95427.00
2023-05-18T01:15:55.681Z,95425.00
2023-05-18T01:16:55.738Z,95425.00
2023-05-18T01:17:55.771Z,95427.00
2023-05-18T01:18:55.749Z,95427.00
2023-05-18T01:19:55.769Z,95427.00
2023-05-18T01:20:55.813Z,95427.00
2023-05-18T01:21:55.792Z,95427.00
2023-05-18T01:22:55.809Z,95425.00
2023-05-18T01:23:55.843Z,95427.00
2023-05-18T01:24:55.878Z,95423.00
2023-05-18T01:25:55.884Z,95427.00
2023-05-18T01:26:55.940Z,95425.00
2023-05-18T01:27:55.928Z,95427.00
2023-05-18T01:28:55.966Z,95425.00
2023-05-18T01:29:55.990Z,95425.00
2023-05-18T01:30:56.020Z,95423.00
2023-05-18T01:31:56.053Z,95419.00
2023-05-18T01:32:56.055Z,95419.00
2023-05-18T01:33:56.072Z,95421.00
2023-05-18T01:34:56.117Z,95417.00
2023-05-18T01:35:56.144Z,95415.00
2023-05-18T01:36:56.140Z,95415.00
2023-05-18T01:37:56.203Z,95415.00
2023-05-18T01:38:56.184Z,95413.00
2023-05-18T01:39:56.228Z,95411.00
2023-05-18T01:40:56.237Z,95411.00
2023-05-18T01:41:56.279Z,95411.00
2023-05-18T01:42:56.300Z,95411.00
2023-05-18T01:43:56.291Z,95409.00
2023-05-18T01:44:56.318Z,95411.00
2023-05-18T01:45:56.392Z,95411.00
2023-05-18T01:46:56.393Z,95407.00
2023-05-18T01:47:56.479Z,95407.00
2023-05-18T01:48:56.494Z,95409.00
2023-05-18T01:49:56.503Z,95407.00
2023-05-18T01:50:56.536Z,95407.00
2023-05-18T01:51:56.574Z,95411.00
2023-05-18T01:52:56.607Z,95409.00
2023-05-18T01:53:56.652Z,95409.00
2023-05-18T01:54:56.665Z,95403.00
2023-05-18T01:55:56.732Z,95405.00
2023-05-18T01:56:56.791Z,95403.00
2023-05-18T01:57:56.796Z,95401.00
2023-05-18T01:58:56.848Z,95403.00
2023-05-18T01:59:56.862Z,95403.00
2023-05-18T02:00:56.893Z,95403.00
2023-05-18T02:01:59.554Z,95403.00
2023-05-18T02:02:57.041Z,95403.00
2023-05-18T02:03:57.036Z,95403.00
2023-05-18T02:04:57.005Z,95394.00
2023-05-18T02:05:56.914Z,95401.00
2023-05-18T02:06:56.938Z,95403.00
2023-05-18T02:07:56.912Z,95403.00
2023-05-18T02:08:56.868Z,95403.00
2023-05-18T02:09:56.891Z,95401.00
2023-05-18T02:10:56.886Z,95401.00
2023-05-18T02:11:56.890Z,95401.00
2023-05-18T02:12:56.869Z,95401.00
2023-05-18T02:13:56.865Z,95394.00
2023-05-18T02:14:56.862Z,95392.00
2023-05-18T02:15:56.876Z,95394.00
2023-05-18T02:16:56.813Z,95392.00
2023-05-18T02:17:56.873Z,95394.00
2023-05-18T02:18:56.863Z,95394.00
2023-05-18T02:19:56.811Z,95401.00
2023-05-18T02:20:56.819Z,95394.00
2023-05-18T02:21:56.804Z,95394.00
2023-05-18T02:22:56.799Z,95394.00
2023-05-18T02:23:56.784Z,95394.00
2023-05-18T02:24:56.771Z,95394.00
2023-05-18T02:25:56.788Z,95394.00
2023-05-18T02:26:56.779Z,95392.00
2023-05-18T02:27:56.794Z,95394.00
2023-05-18T02:28:56.762Z,95392.00
2023-05-18T02:29:56.748Z,95390.00
2023-05-18T02:30:56.744Z,95392.00
2023-05-18T02:31:56.765Z,95388.00
2023-05-18T02:32:56.869Z,95390.00
2023-05-18T02:33:56.732Z,95388.00
2023-05-18T02:34:56.738Z,95388.00
2023-05-18T02:35:56.724Z,95390.00
2023-05-18T02:36:56.710Z,95390.00
2023-05-18T02:37:56.682Z,95390.00
2023-05-18T02:38:56.689Z,95386.00
2023-05-18T02:39:56.672Z,95390.00
2023-05-18T02:40:56.681Z,95388.00
2023-05-18T02:41:56.681Z,95388.00
2023-05-18T02:42:56.656Z,95390.00
2023-05-18T02:43:56.681Z,95386.00
2023-05-18T02:44:56.643Z,95386.00
2023-05-18T02:45:56.707Z,95386.00
2023-05-18T02:46:56.635Z,95384.00
2023-05-18T02:47:56.657Z,95384.00
2023-05-18T02:48:56.632Z,95384.00
2023-05-18T02:49:56.643Z,95380.00
2023-05-18T02:50:56.645Z,95380.00
2023-05-18T02:51:56.623Z,95380.00
2023-05-18T02:52:56.593Z,95376.00
2023-05-18T02:53:56.606Z,95380.00
2023-05-18T02:54:56.648Z,95380.00
2023-05-18T02:55:56.579Z,95378.00
2023-05-18T02:56:56.578Z,95380.00
2023-05-18T02:57:56.598Z,95380.00
2023-05-18T02:58:57.410Z,95376.00
2023-05-18T02:59:56.583Z,95378.00
2023-05-18T03:00:56.571Z,95376.00
2023-05-18T03:01:56.558Z,95376.00
2023-05-18T03:02:56.679Z,95374.00
2023-05-18T03:03:56.587Z,95374.00
2023-05-18T03:04:56.544Z,95374.00
2023-05-18T03:05:56.544Z,95376.00
2023-05-18T03:06:56.570Z,95376.00
2023-05-18T03:07:56.534Z,95376.00
2023-05-18T03:08:56.519Z,95378.00
2023-05-18T03:09:56.500Z,95374.00
2023-05-18T03:10:56.500Z,95378.00
2023-05-18T03:11:56.507Z,95374.00
2023-05-18T03:12:56.462Z,95376.00
2023-05-18T03:13:56.510Z,95376.00
2023-05-18T03:14:56.522Z,95374.00
2023-05-18T03:15:56.601Z,95378.00
2023-05-18T03:16:56.627Z,95376.00
2023-05-18T03:17:56.690Z,95376.00
2023-05-18T03:18:56.755Z,95376.00
2023-05-18T03:19:56.782Z,95376.00
2023-05-18T03:20:56.822Z,95374.00
2023-05-18T03:21:56.884Z,95378.00
2023-05-18T03:22:56.969Z,95374.00
2023-05-18T03:23:57.010Z,95374.00
2023-05-18T03:24:57.062Z,95374.00
2023-05-18T03:25:57.115Z,95376.00
2023-05-18T03:26:57.200Z,95376.00
2023-05-18T03:27:57.247Z,95378.00
2023-05-18T03:28:57.298Z,95376.00
2023-05-18T03:29:57.351Z,95376.00
2023-05-18T03:30:57.465Z,95378.00
2023-05-18T03:31:57.646Z,95378.00
2023-05-18T03:32:57.568Z,95376.00
2023-05-18T03:33:57.553Z,95378.00
2023-05-18T03:34:57.635Z,95378.00
2023-05-18T03:35:57.641Z,95378.00
2023-05-18T03:36:57.727Z,95382.00
2023-05-18T03:37:57.758Z,95384.00
2023-05-18T03:38:57.832Z,95384.00
2023-05-18T03:39:57.852Z,95388.00
2023-05-18T03:40:57.894Z,95384.00
2023-05-18T03:41:57.950Z,95388.00
2023-05-18T03:42:57.967Z,95388.00
2023-05-18T03:43:57.998Z,95388.00
2023-05-18T03:44:58.070Z,95386.00
2023-05-18T03:45:58.119Z,95386.00
2023-05-18T03:46:58.150Z,95386.00
2023-05-18T03:47:58.238Z,95386.00
2023-05-18T03:48:58.217Z,95384.00
2023-05-18T03:49:58.280Z,95384.00
2023-05-18T03:50:58.327Z,95386.00
2023-05-18T03:51:58.363Z,95386.00
2023-05-18T03:52:58.455Z,95382.00
2023-05-18T03:53:58.423Z,95382.00
2023-05-18T03:54:58.461Z,95384.00
2023-05-18T03:55:58.500Z,95384.00
2023-05-18T03:56:58.507Z,95382.00
2023-05-18T03:57:58.566Z,95384.00
2023-05-18T03:58:58.578Z,95382.00
2023-05-18T03:59:58.605Z,95382.00
2023-05-18T04:00:58.664Z,95384.00
2023-05-18T04:01:58.741Z,95384.00
2023-05-18T04:02:58.809Z,95384.00
2023-05-18T04:03:58.794Z,95382.00
2023-05-18T04:04:58.821Z,95384.00
2023-05-18T04:05:58.848Z,95382.00
2023-05-18T04:06:58.888Z,95382.00
2023-05-18T04:07:58.922Z,95382.00
2023-05-18T04:08:58.955Z,95388.00
2023-05-18T04:09:59.010Z,95388.00
2023-05-18T04:10:59.015Z,95386.00
2023-05-18T04:11:59.073Z,95390.00
2023-05-18T04:12:59.136Z,95390.00
2023-05-18T04:13:59.139Z,95390.00
2023-05-18T04:14:59.192Z,95388.00
2023-05-18T04:15:59.316Z,95390.00
2023-05-18T04:16:59.265Z,95384.00
2023-05-18T04:17:59.328Z,95390.00
2023-05-18T04:18:59.377Z,95386.00
2023-05-18T04:19:59.410Z,95386.00
2023-05-18T04:20:59.433Z,95388.00
2023-05-18T04:21:59.470Z,95386.00
2023-05-18T04:22:59.504Z,95388.00
2023-05-18T04:23:59.499Z,95388.00
2023-05-18T04:24:59.559Z,95384.00
2023-05-18T04:25:59.622Z,95386.00
2023-05-18T04:26:59.635Z,95386.00
2023-05-18T04:27:59.646Z,95386.00
2023-05-18T04:28:59.713Z,95384.00
2023-05-18T04:29:59.749Z,95384.00
2023-05-18T04:30:59.751Z,95384.00
2023-05-18T04:31:59.812Z,95384.00
2023-05-18T04:32:59.859Z,95386.00
2023-05-18T04:33:59.883Z,95386.00
2023-05-18T04:34:59.889Z,95386.00
2023-05-18T04:35:59.935Z,95388.00
2023-05-18T04:36:59.975Z,95386.00
2023-05-18T04:38:00.038Z,95390.00
2023-05-18T04:39:00.039Z,95388.00
2023-05-18T04:40:00.061Z,95390.00
2023-05-18T04:41:00.125Z,95390.00
2023-05-18T04:42:00.160Z,95392.00
2023-05-18T04:43:00.189Z,95388.00
2023-05-18T04:44:00.238Z,95390.00
2023-05-18T04:45:00.254Z,95392.00
2023-05-18T04:46:00.358Z,95390.00
2023-05-18T04:47:00.331Z,95392.00
2023-05-18T04:48:00.425Z,95394.00
2023-05-18T04:49:00.422Z,95392.00
2023-05-18T04:50:00.464Z,95394.00
2023-05-18T04:51:00.517Z,95394.00
2023-05-18T04:52:00.565Z,95392.00
2023-05-18T04:53:00.589Z,95392.00
2023-05-18T04:54:00.632Z,95392.00
2023-05-18T04:55:00.669Z,95394.00
2023-05-18T04:56:00.732Z,95390.00
2023-05-18T04:57:00.742Z,95390.00
2023-05-18T04:58:00.834Z,95388.00
2023-05-18T04:59:00.827Z,95386.00
2023-05-18T05:00:00.916Z,95386.00
2023-05-18T05:01:00.929Z,95386.00
2023-05-18T05:02:07.963Z,95384.00
2023-05-18T05:03:01.040Z,95386.00
2023-05-18T05:04:00.975Z,95386.00
2023-05-18T05:05:00.930Z,95388.00
2023-05-18T05:06:00.931Z,95386.00
2023-05-18T05:07:00.906Z,95388.00
2023-05-18T05:08:00.887Z,95388.00
2023-05-18T05:09:00.885Z,95384.00
2023-05-18T05:10:00.885Z,95384.00
2023-05-18T05:11:00.890Z,95384.00
2023-05-18T05:12:00.878Z,95384.00
2023-05-18T05:13:00.871Z,95384.00
2023-05-18T05:14:00.855Z,95384.00
2023-05-18T05:15:00.857Z,95388.00
2023-05-18T05:16:00.882Z,95386.00
2023-05-18T05:17:00.873Z,95386.00
2023-05-18T05:18:00.832Z,95382.00
2023-05-18T05:19:00.852Z,95384.00
2023-05-18T05:20:00.843Z,95384.00
2023-05-18T05:21:00.818Z,95382.00
2023-05-18T05:22:00.811Z,95382.00
2023-05-18T05:23:00.870Z,95380.00
2023-05-18T05:24:00.774Z,95382.00
2023-05-18T05:25:00.785Z,95382.00
2023-05-18T05:26:00.764Z,95384.00
2023-05-18T05:27:00.756Z,95386.00
2023-05-18T05:28:00.763Z,95380.00
2023-05-18T05:29:00.802Z,95382.00
2023-05-18T05:30:00.782Z,95382.00
2023-05-18T05:31:00.768Z,95382.00
2023-05-18T05:32:00.826Z,95378.00
2023-05-18T05:33:00.696Z,95378.00
2023-05-18T05:34:00.719Z,95378.00
2023-05-18T05:35:00.775Z,95378.00
2023-05-18T05:36:00.795Z,95380.00
2023-05-18T05:37:00.830Z,95378.00
2023-05-18T05:38:00.856Z,95380.00
2023-05-18T05:39:00.873Z,95378.00
2023-05-18T05:40:00.940Z,95378.00
2023-05-18T05:41:00.983Z,95376.00
2023-05-18T05:42:01.017Z,95378.00
2023-05-18T05:43:01.041Z,95378.00
2023-05-18T05:44:01.106Z,95378.00
2023-05-18T05:45:01.121Z,95378.00
2023-05-18T05:46:08.617Z,95376.00
2023-05-18T05:47:01.242Z,95378.00
2023-05-18T05:48:01.142Z,95378.00
2023-05-18T05:49:01.145Z,95376.00
2023-05-18T05:50:01.158Z,95378.00
2023-05-18T05:51:01.134Z,95378.00
2023-05-18T05:52:01.120Z,95378.00
2023-05-18T05:53:01.165Z,95376.00
2023-05-18T05:54:01.122Z,95378.00
2023-05-18T05:55:01.080Z,95378.00
2023-05-18T05:56:01.138Z,95376.00
2023-05-18T05:57:01.065Z,95374.00
2023-05-18T05:58:01.073Z,95376.00
2023-05-18T05:59:01.099Z,95376.00
2023-05-18T06:00:01.066Z,95374.00
2023-05-18T06:01:01.100Z,95374.00
2023-05-18T06:02:01.118Z,95374.00
2023-05-18T06:03:01.062Z,95374.00
2023-05-18T06:04:01.128Z,95372.00
2023-05-18T06:05:01.046Z,95372.00
2023-05-18T06:06:01.057Z,95374.00
2023-05-18T06:07:01.124Z,95372.00
2023-05-18T06:08:01.136Z,95376.00
2023-05-18T06:09:01.178Z,95378.00
2023-05-18T06:10:01.215Z,95378.00
2023-05-18T06:11:01.248Z,95380.00
2023-05-18T06:12:01.304Z,95378.00
2023-05-18T06:13:01.350Z,95382.00
2023-05-18T06:14:01.412Z,95380.00
2023-05-18T06:15:01.454Z,95382.00
2023-05-18T06:16:01.565Z,95380.00
2023-05-18T06:17:01.617Z,95380.00
2023-05-18T06:18:02.557Z,95380.00
2023-05-18T06:19:01.683Z,95382.00
2023-05-18T06:20:01.781Z,95384.00
2023-05-18T06:21:01.815Z,95386.00
2023-05-18T06:22:01.868Z,95384.00
2023-05-18T06:23:01.927Z,95384.00
2023-05-18T06:24:02.017Z,95386.00
2023-05-18T06:25:02.048Z,95384.00
2023-05-18T06:26:02.132Z,95388.00
2023-05-18T06:27:02.177Z,95386.00
2023-05-18T06:28:02.189Z,95386.00
2023-05-18T06:29:02.288Z,95386.00
2023-05-18T06:30:02.331Z,95384.00
2023-05-18T06:31:02.389Z,95386.00
2023-05-18T06:32:02.490Z,95384.00
2023-05-18T06:33:02.545Z,95384.00
2023-05-18T06:34:02.543Z,95384.00
2023-05-18T06:35:02.608Z,95382.00
2023-05-18T06:36:02.697Z,95380.00
2023-05-18T06:37:02.732Z,95382.00
2023-05-18T06:38:02.824Z,95380.00
2023-05-18T06:39:02.859Z,95382.00
2023-05-18T06:40:02.967Z,95382.00
2023-05-18T06:41:03.012Z,95380.00
2023-05-18T06:42:03.061Z,95382.00
2023-05-18T06:43:03.097Z,95382.00
2023-05-18T06:44:03.157Z,95382.00
2023-05-18T06:45:03.203Z,95380.00
2023-05-18T06:46:03.603Z,95382.00
2023-05-18T06:47:03.311Z,95382.00
2023-05-18T06:48:03.478Z,95382.00
2023-05-18T06:49:03.388Z,95382.00
2023-05-18T06:50:03.499Z,95386.00
2023-05-18T06:51:03.480Z,95386.00
2023-05-18T06:52:03.571Z,95386.00
2023-05-18T06:53:03.620Z,95384.00
2023-05-18T06:54:03.688Z,95386.00
2023-05-18T06:55:03.764Z,95386.00
2023-05-18T06:56:03.823Z,95388.00
2023-05-18T06:57:03.861Z,95388.00
2023-05-18T06:58:03.890Z,95388.00
2023-05-18T06:59:04.038Z,95386.00
2023-05-18T07:00:04.034Z,95386.00
2023-05-18T07:01:04.095Z,95386.00
2023-05-18T07:02:04.313Z,95386.00
2023-05-18T07:03:04.190Z,95386.00
2023-05-18T07:04:04.227Z,95388.00
2023-05-18T07:05:04.296Z,95390.00
2023-05-18T07:06:04.272Z,95388.00
2023-05-18T07:07:04.296Z,95388.00
2023-05-18T07:08:04.319Z,95388.00
2023-05-18T07:09:04.238Z,95386.00
2023-05-18T07:10:04.246Z,95386.00
2023-05-18T07:11:04.259Z,95388.00
2023-05-18T07:12:04.281Z,95390.00
2023-05-18T07:13:04.275Z,95390.00
2023-05-18T07:14:04.204Z,95392.00
2023-05-18T07:15:04.277Z,95384.00
2023-05-18T07:16:04.305Z,95384.00
2023-05-18T07:17:04.300Z,95382.00
2023-05-18T07:18:04.361Z,95384.00
2023-05-18T07:19:04.438Z,95384.00
2023-05-18T07:20:04.454Z,95382.00
2023-05-18T07:21:04.525Z,95380.00
2023-05-18T07:22:04.610Z,95378.00
2023-05-18T07:23:04.646Z,95380.00
2023-05-18T07:24:04.696Z,95378.00
2023-05-18T07:25:04.767Z,95378.00
2023-05-18T07:26:04.820Z,95374.00
2023-05-18T07:27:04.870Z,95378.00
2023-05-18T07:28:04.899Z,95376.00
2023-05-18T07:29:04.941Z,95374.00
2023-05-18T07:30:05.008Z,95372.00
2023-05-18T07:31:05.055Z,95374.00
2023-05-18T07:32:05.084Z,95374.00
2023-05-18T07:33:05.137Z,95370.00
2023-05-18T07:34:05.151Z,95372.00
2023-05-18T07:35:05.232Z,95372.00
2023-05-18T07:36:05.286Z,95370.00
2023-05-18T07:37:05.352Z,95374.00
2023-05-18T07:38:05.372Z,95372.00
2023-05-18T07:39:05.406Z,95370.00
2023-05-18T07:40:05.501Z,95370.00
2023-05-18T07:41:05.509Z,95368.00
2023-05-18T07:42:05.524Z,95366.00
2023-05-18T07:43:05.554Z,95368.00
2023-05-18T07:44:05.652Z,95366.00
2023-05-18T07:45:05.682Z,95368.00
2023-05-18T07:46:05.725Z,95368.00
2023-05-18T07:47:05.894Z,95370.00
2023-05-18T07:48:05.883Z,95364.00
2023-05-18T07:49:05.856Z,95366.00
2023-05-18T07:50:05.890Z,95368.00
2023-05-18T07:51:05.965Z,95364.00
2023-05-18T07:52:06.017Z,95364.00
2023-05-18T07:53:06.081Z,95366.00
2023-05-18T07:54:06.153Z,95370.00
2023-05-18T07:55:06.188Z,95370.00
2023-05-18T07:56:06.240Z,95370.00
2023-05-18T07:57:06.306Z,95370.00
2023-05-18T07:58:06.385Z,95366.00
2023-05-18T07:59:06.438Z,95366.00
2023-05-18T08:00:06.599Z,95366.00
2023-05-18T08:01:06.552Z,95360.00
2023-05-18T08:02:06.731Z,95362.00
2023-05-18T08:03:06.737Z,95362.00
2023-05-18T08:04:06.854Z,95362.00
2023-05-18T08:05:06.780Z,95364.00
2023-05-18T08:06:06.846Z,95362.00
2023-05-18T08:07:06.863Z,95362.00
2023-05-18T08:08:07.208Z,95364.00
2023-05-18T08:09:07.084Z,95362.00
2023-05-18T08:10:07.037Z,95362.00
2023-05-18T08:11:07.120Z,95364.00
2023-05-18T08:12:07.163Z,95364.00
2023-05-18T08:13:07.251Z,95368.00
2023-05-18T08:14:07.254Z,95362.00
2023-05-18T08:15:07.274Z,95360.00
2023-05-18T08:16:12.205Z,95362.00
2023-05-18T08:17:08.399Z,95364.00
2023-05-18T08:18:07.326Z,95364.00
2023-05-18T08:19:07.410Z,95366.00
2023-05-18T08:20:07.294Z,95370.00
2023-05-18T08:21:07.252Z,95362.00
2023-05-18T08:22:07.303Z,95360.00
2023-05-18T08:23:07.261Z,95362.00
2023-05-18T08:24:07.248Z,95362.00
2023-05-18T08:25:07.284Z,95362.00
2023-05-18T08:26:07.279Z,95364.00
2023-05-18T08:27:07.294Z,95368.00
2023-05-18T08:28:07.242Z,95366.00
2023-05-18T08:29:07.251Z,95366.00
2023-05-18T08:30:07.216Z,95368.00
2023-05-18T08:31:07.213Z,95368.00
2023-05-18T08:32:07.242Z,95368.00
2023-05-18T08:33:07.282Z,95370.00
2023-05-18T08:34:07.214Z,95370.00
2023-05-18T08:35:07.299Z,95372.00
2023-05-18T08:36:07.300Z,95370.00
2023-05-18T08:37:07.318Z,95376.00
2023-05-18T08:38:07.421Z,95372.00
2023-05-18T08:39:07.457Z,95368.00
2023-05-18T08:40:07.497Z,95372.00
2023-05-18T08:41:07.591Z,95372.00
2023-05-18T08:42:07.648Z,95366.00
2023-05-18T08:43:07.725Z,95362.00
2023-05-18T08:44:07.736Z,95362.00
2023-05-18T08:45:07.809Z,95366.00
2023-05-18T08:46:07.885Z,95368.00
2023-05-18T08:47:07.912Z,95368.00
2023-05-18T08:48:08.047Z,95370.00
2023-05-18T08:49:08.164Z,95368.00
2023-05-18T08:50:08.104Z,95366.00
2023-05-18T08:51:08.123Z,95368.00
2023-05-18T08:52:08.171Z,95370.00
2023-05-18T08:53:08.157Z,95368.00
2023-05-18T08:54:08.150Z,95372.00
2023-05-18T08:55:10.962Z,95362.00
2023-05-18T08:56:08.137Z,95360.00
2023-05-18T08:57:08.156Z,95362.00
2023-05-18T08:58:08.150Z,95360.00
2023-05-18T08:59:08.322Z,95364.00
2023-05-18T09:00:08.108Z,95358.00
2023-05-18T09:01:08.175Z,95360.00
2023-05-18T09:02:08.195Z,95358.00
2023-05-18T09:03:08.150Z,95356.00
2023-05-18T09:04:08.065Z,95354.00
2023-05-18T09:05:08.195Z,95352.00
2023-05-18T09:06:08.040Z,95354.00
2023-05-18T09:07:08.099Z,95349.00
2023-05-18T09:08:08.059Z,95356.00
2023-05-18T09:09:08.045Z,95354.00
2023-05-18T09:10:08.046Z,95356.00
2023-05-18T09:11:08.036Z,95354.00
2023-05-18T09:12:08.059Z,95356.00
2023-05-18T09:13:08.042Z,95356.00
2023-05-18T09:14:07.990Z,95358.00
2023-05-18T09:15:08.001Z,95356.00
2023-05-18T09:16:08.132Z,95354.00
2023-05-18T09:17:07.986Z,95352.00
2023-05-18T09:18:08.023Z,95356.00
2023-05-18T09:19:08.049Z,95354.00
2023-05-18T09:20:07.956Z,95356.00
2023-05-18T09:21:07.934Z,95356.00
2023-05-18T09:22:07.921Z,95358.00
2023-05-18T09:23:07.939Z,95360.00
2023-05-18T09:24:07.905Z,95362.00
2023-05-18T09:25:07.896Z,95356.00
2023-05-18T09:26:07.910Z,95360.00
2023-05-18T09:27:07.898Z,95362.00
2023-05-18T09:28:07.889Z,95358.00
2023-05-18T09:29:07.870Z,95360.00
2023-05-18T09:30:07.866Z,95358.00
2023-05-18T09:31:07.898Z,95358.00
2023-05-18T09:32:07.836Z,95356.00
2023-05-18T09:33:07.922Z,95358.00
2023-05-18T09:34:07.926Z,95360.00
2023-05-18T09:35:07.901Z,95358.00
2023-05-18T09:36:07.859Z,95358.00
2023-05-18T09:37:07.795Z,95358.00
2023-05-18T09:38:08.626Z,95352.00
2023-05-18T09:39:07.808Z,95352.00
2023-05-18T09:40:07.791Z,95352.00
2023-05-18T09:41:07.764Z,95352.00
2023-05-18T09:42:07.760Z,95351.00
2023-05-18T09:43:07.768Z,95351.00
2023-05-18T09:44:07.770Z,95349.00
2023-05-18T09:45:07.845Z,95347.00
2023-05-18T09:46:08.618Z,95349.00
2023-05-18T09:47:07.869Z,95351.00
2023-05-18T09:48:07.794Z,95347.00
2023-05-18T09:49:07.724Z,95345.00
2023-05-18T09:50:07.717Z,95343.00
2023-05-18T09:51:07.766Z,95343.00
2023-05-18T09:52:07.739Z,95341.00
2023-05-18T09:53:07.703Z,95343.00
2023-05-18T09:54:07.703Z,95337.00
2023-05-18T09:55:07.704Z,95339.00
2023-05-18T09:56:07.677Z,95335.00
2023-05-18T09:57:10.412Z,95337.00
2023-05-18T09:58:07.671Z,95337.00
2023-05-18T09:59:07.662Z,95337.00
2023-05-18T10:00:07.657Z,95337.00
2023-05-18T10:01:07.775Z,95337.00
2023-05-18T10:02:07.678Z,95337.00
2023-05-18T10:03:07.699Z,95333.00
2023-05-18T10:04:07.679Z,95337.00
2023-05-18T10:05:07.615Z,95339.00
2023-05-18T10:06:07.589Z,95337.00
2023-05-18T10:07:07.586Z,95337.00
2023-05-18T10:08:07.606Z,95339.00
2023-05-18T10:09:07.598Z,95339.00
2023-05-18T10:10:09.234Z,95339.00
2023-05-18T10:11:07.563Z,95335.00
2023-05-18T10:12:07.561Z,95341.00
2023-05-18T10:13:07.550Z,95341.00
2023-05-18T10:14:07.533Z,95339.00
2023-05-18T10:15:07.559Z,95339.00
2023-05-18T10:16:07.552Z,95341.00
2023-05-18T10:17:15.609Z,95335.00
2023-05-18T10:18:08.539Z,95337.00
2023-05-18T10:19:07.548Z,95335.00
2023-05-18T10:20:07.514Z,95333.00
2023-05-18T10:21:07.475Z,95337.00
2023-05-18T10:22:07.497Z,95335.00
2023-05-18T10:23:07.504Z,95333.00
2023-05-18T10:24:07.453Z,95333.00
2023-05-18T10:25:07.454Z,95333.00
2023-05-18T10:26:07.462Z,95331.00
2023-05-18T10:27:07.488Z,95329.00
2023-05-18T10:28:07.425Z,95327.00
2023-05-18T10:29:07.441Z,95329.00
2023-05-18T10:30:07.413Z,95327.00
2023-05-18T10:31:07.386Z,95329.00
2023-05-18T10:32:08.065Z,95329.00
2023-05-18T10:33:20.741Z,95333.00
2023-05-18T10:34:08.408Z,95327.00
2023-05-18T10:35:07.375Z,95331.00
2023-05-18T10:36:07.377Z,95329.00
2023-05-18T10:37:07.991Z,95329.00
2023-05-18T10:38:07.360Z,95327.00
2023-05-18T10:39:07.372Z,95323.00
2023-05-18T10:40:07.364Z,95327.00
2023-05-18T10:41:07.358Z,95323.00
2023-05-18T10:42:07.424Z,95325.00
2023-05-18T10:43:07.442Z,95321.00
2023-05-18T10:44:07.496Z,95327.00
2023-05-18T10:45:07.551Z,95329.00
2023-05-18T10:46:07.824Z,95327.00
2023-05-18T10:47:07.829Z,95325.00
2023-05-18T10:48:07.749Z,95325.00
2023-05-18T10:49:07.774Z,95327.00
2023-05-18T10:50:07.845Z,95323.00
2023-05-18T10:51:07.897Z,95327.00
2023-05-18T10:52:07.923Z,95327.00
2023-05-18T10:53:08.001Z,95329.00
2023-05-18T10:54:08.034Z,95325.00
2023-05-18T10:55:08.086Z,95331.00
2023-05-18T10:56:08.183Z,95327.00
2023-05-18T10:57:08.226Z,95325.00
2023-05-18T10:58:08.248Z,95325.00
2023-05-18T10:59:08.299Z,95327.00
2023-05-18T11:00:08.357Z,95333.00
2023-05-18T11:01:08.419Z,95333.00
2023-05-18T11:02:08.529Z,95333.00
2023-05-18T11:03:08.498Z,95329.00
2023-05-18T11:04:08.523Z,95329.00
2023-05-18T11:05:08.600Z,95329.00
2023-05-18T11:06:08.604Z,95329.00
2023-05-18T11:07:08.681Z,95337.00
2023-05-18T11:08:08.681Z,95329.00
2023-05-18T11:09:08.732Z,95329.00
2023-05-18T11:10:08.779Z,95329.00
2023-05-18T11:11:08.764Z,95325.00
2023-05-18T11:12:08.774Z,95325.00
2023-05-18T11:13:08.824Z,95323.00
2023-05-18T11:14:08.790Z,95325.00
2023-05-18T11:15:08.858Z,95323.00
2023-05-18T11:16:08.939Z,95325.00
2023-05-18T11:17:09.189Z,95325.00
2023-05-18T11:18:08.914Z,95325.00
2023-05-18T11:19:08.990Z,95327.00
2023-05-18T11:20:09.151Z,95323.00
2023-05-18T11:21:09.056Z,95323.00
2023-05-18T11:22:09.088Z,95325.00
2023-05-18T11:23:09.124Z,95319.00
2023-05-18T11:24:09.204Z,95321.00
2023-05-18T11:25:09.208Z,95321.00
2023-05-18T11:26:09.290Z,95323.00
2023-05-18T11:27:09.329Z,95323.00
2023-05-18T11:28:09.348Z,95323.00
2023-05-18T11:29:09.421Z,95319.00
2023-05-18T11:31:10.472Z,95327.00
2023-05-18T11:32:09.573Z,95321.00
2023-05-18T11:33:09.604Z,95325.00
2023-05-18T11:34:09.476Z,95327.00
2023-05-18T11:35:09.423Z,95325.00
2023-05-18T11:36:09.442Z,95327.00
2023-05-18T11:37:09.441Z,95327.00
2023-05-18T11:38:09.401Z,95327.00
2023-05-18T11:39:09.402Z,95329.00
2023-05-18T11:40:11.093Z,95331.00
2023-05-18T11:41:09.403Z,95327.00
2023-05-18T11:42:09.417Z,95327.00
2023-05-18T11:43:09.443Z,95323.00
2023-05-18T11:44:09.518Z,95325.00
2023-05-18T11:45:09.587Z,95325.00
2023-05-18T11:46:09.641Z,95323.00